sensor_id;sensor_type;location;lat;lon;timestamp;P1;durP1;ratioP1;P2;durP2;ratioP2
8514;SDS011;4295;51.024;7.000;2022-09-09T00:00:15;76.10;;;5.83;;
8514;SDS011;4295;51.024;7.000;2022-09-09T00:02:43;76.87;;;5.83;;
8514;SDS011;4295;51.024;7.000;2022-09-09T00:05:29;78.17;;;6.50;;
8514;SDS011;4295;51.024;7.000;2022-09-09T00:07:57;79.53;;;6.03;;
8514;SDS011;4295;51.024;7.000;2022-09-09T00:15:20;76.00;;;6.20;;
8514;SDS011;4295;51.024;7.000;2022-09-09T00:20:19;77.97;;;6.37;;
8514;SDS011;4295;51.024;7.000;2022-09-09T00:25:33;78.37;;;6.40;;
8514;SDS011;4295;51.024;7.000;2022-09-09T00:27:59;75.70;;;6.70;;
8514;SDS011;4295;51.024;7.000;2022-09-09T00:30:26;74.83;;;6.57;;
8514;SDS011;4295;51.024;7.000;2022-09-09T00:32:55;74.77;;;6.70;;
8514;SDS011;4295;51.024;7.000;2022-09-09T00:37:55;77.77;;;6.50;;
8514;SDS011;4295;51.024;7.000;2022-09-09T00:40:22;75.30;;;6.50;;
8514;SDS011;4295;51.024;7.000;2022-09-09T00:42:51;76.30;;;6.40;;
8514;SDS011;4295;51.024;7.000;2022-09-09T00:47:52;78.87;;;6.70;;
8514;SDS011;4295;51.024;7.000;2022-09-09T00:55:41;78.40;;;6.63;;
8514;SDS011;4295;51.024;7.000;2022-09-09T00:58:09;76.77;;;6.90;;
8514;SDS011;4295;51.024;7.000;2022-09-09T01:05:54;76.00;;;6.50;;
8514;SDS011;4295;51.024;7.000;2022-09-09T01:11:07;78.87;;;6.50;;
8514;SDS011;4295;51.024;7.000;2022-09-09T01:13:35;76.10;;;6.30;;
8514;SDS011;4295;51.024;7.000;2022-09-09T01:16:04;76.10;;;6.63;;
8514;SDS011;4295;51.024;7.000;2022-09-09T01:18:33;76.23;;;6.30;;
8514;SDS011;4295;51.024;7.000;2022-09-09T01:28:55;76.00;;;5.80;;
8514;SDS011;4295;51.024;7.000;2022-09-09T01:31:21;75.47;;;5.57;;
8514;SDS011;4295;51.024;7.000;2022-09-09T01:33:48;73.07;;;5.30;;
8514;SDS011;4295;51.024;7.000;2022-09-09T01:36:15;75.67;;;5.47;;
8514;SDS011;4295;51.024;7.000;2022-09-09T01:38:42;76.60;;;5.63;;
8514;SDS011;4295;51.024;7.000;2022-09-09T01:41:08;75.20;;;6.03;;
8514;SDS011;4295;51.024;7.000;2022-09-09T01:43:33;74.00;;;5.93;;
8514;SDS011;4295;51.024;7.000;2022-09-09T01:45:59;77.70;;;6.10;;
8514;SDS011;4295;51.024;7.000;2022-09-09T01:48:25;75.13;;;6.23;;
8514;SDS011;4295;51.024;7.000;2022-09-09T01:50:51;75.37;;;6.00;;
8514;SDS011;4295;51.024;7.000;2022-09-09T01:53:16;74.67;;;5.67;;
8514;SDS011;4295;51.024;7.000;2022-09-09T01:55:44;77.50;;;5.63;;
8514;SDS011;4295;51.024;7.000;2022-09-09T02:03:43;75.97;;;5.37;;
8514;SDS011;4295;51.024;7.000;2022-09-09T02:08:55;76.17;;;6.23;;
8514;SDS011;4295;51.024;7.000;2022-09-09T02:11:22;76.60;;;6.07;;
8514;SDS011;4295;51.024;7.000;2022-09-09T02:13:47;78.27;;;6.13;;
8514;SDS011;4295;51.024;7.000;2022-09-09T02:21:09;75.77;;;5.53;;
8514;SDS011;4295;51.024;7.000;2022-09-09T02:23:36;77.17;;;6.10;;
8514;SDS011;4295;51.024;7.000;2022-09-09T02:26:02;74.90;;;5.67;;
8514;SDS011;4295;51.024;7.000;2022-09-09T02:28:29;77.50;;;6.10;;
8514;SDS011;4295;51.024;7.000;2022-09-09T02:30:56;77.30;;;6.20;;
8514;SDS011;4295;51.024;7.000;2022-09-09T02:33:23;76.57;;;5.97;;
8514;SDS011;4295;51.024;7.000;2022-09-09T02:35:49;76.00;;;6.30;;
8514;SDS011;4295;51.024;7.000;2022-09-09T02:38:16;77.87;;;6.20;;
8514;SDS011;4295;51.024;7.000;2022-09-09T02:40:41;77.57;;;5.80;;
8514;SDS011;4295;51.024;7.000;2022-09-09T02:43:07;82.67;;;6.47;;
8514;SDS011;4295;51.024;7.000;2022-09-09T02:45:35;75.77;;;5.90;;
8514;SDS011;4295;51.024;7.000;2022-09-09T02:48:14;77.00;;;6.33;;
8514;SDS011;4295;51.024;7.000;2022-09-09T02:53:19;74.80;;;6.20;;
8514;SDS011;4295;51.024;7.000;2022-09-09T02:55:54;74.33;;;5.97;;
8514;SDS011;4295;51.024;7.000;2022-09-09T02:58:20;79.67;;;6.60;;
8514;SDS011;4295;51.024;7.000;2022-09-09T03:00:46;76.80;;;6.73;;
8514;SDS011;4295;51.024;7.000;2022-09-09T03:03:12;74.23;;;5.63;;
8514;SDS011;4295;51.024;7.000;2022-09-09T03:05:37;77.53;;;7.00;;
8514;SDS011;4295;51.024;7.000;2022-09-09T03:08:03;76.00;;;6.23;;
8514;SDS011;4295;51.024;7.000;2022-09-09T03:10:30;76.90;;;6.40;;
8514;SDS011;4295;51.024;7.000;2022-09-09T03:12:55;77.77;;;6.00;;
8514;SDS011;4295;51.024;7.000;2022-09-09T03:15:21;77.87;;;6.73;;
8514;SDS011;4295;51.024;7.000;2022-09-09T03:17:46;77.90;;;6.50;;
8514;SDS011;4295;51.024;7.000;2022-09-09T03:20:12;79.80;;;6.60;;
8514;SDS011;4295;51.024;7.000;2022-09-09T03:22:37;77.13;;;6.17;;
8514;SDS011;4295;51.024;7.000;2022-09-09T03:25:02;75.17;;;6.00;;
8514;SDS011;4295;51.024;7.000;2022-09-09T03:27:28;80.00;;;7.13;;
8514;SDS011;4295;51.024;7.000;2022-09-09T03:29:53;75.87;;;6.30;;
8514;SDS011;4295;51.024;7.000;2022-09-09T03:32:19;77.43;;;6.30;;
8514;SDS011;4295;51.024;7.000;2022-09-09T03:34:44;77.90;;;6.70;;
8514;SDS011;4295;51.024;7.000;2022-09-09T03:37:10;76.93;;;6.40;;
8514;SDS011;4295;51.024;7.000;2022-09-09T03:39:35;76.17;;;6.40;;
8514;SDS011;4295;51.024;7.000;2022-09-09T03:42:00;75.37;;;6.40;;
8514;SDS011;4295;51.024;7.000;2022-09-09T03:44:28;74.83;;;6.20;;
8514;SDS011;4295;51.024;7.000;2022-09-09T03:46:54;75.87;;;6.73;;
8514;SDS011;4295;51.024;7.000;2022-09-09T03:49:19;80.73;;;6.57;;
8514;SDS011;4295;51.024;7.000;2022-09-09T03:51:45;78.30;;;6.97;;
8514;SDS011;4295;51.024;7.000;2022-09-09T03:54:10;76.37;;;7.43;;
8514;SDS011;4295;51.024;7.000;2022-09-09T03:56:35;79.50;;;7.40;;
8514;SDS011;4295;51.024;7.000;2022-09-09T03:59:01;77.27;;;6.37;;
8514;SDS011;4295;51.024;7.000;2022-09-09T04:01:26;78.63;;;7.20;;
8514;SDS011;4295;51.024;7.000;2022-09-09T04:03:51;74.47;;;6.53;;
8514;SDS011;4295;51.024;7.000;2022-09-09T04:06:17;80.43;;;6.63;;
8514;SDS011;4295;51.024;7.000;2022-09-09T04:08:43;76.87;;;7.20;;
8514;SDS011;4295;51.024;7.000;2022-09-09T04:11:08;84.13;;;7.50;;
8514;SDS011;4295;51.024;7.000;2022-09-09T04:13:35;75.93;;;7.10;;
8514;SDS011;4295;51.024;7.000;2022-09-09T04:16:00;82.80;;;7.50;;
8514;SDS011;4295;51.024;7.000;2022-09-09T04:18:26;77.17;;;6.97;;
8514;SDS011;4295;51.024;7.000;2022-09-09T04:20:53;76.67;;;6.70;;
8514;SDS011;4295;51.024;7.000;2022-09-09T04:23:18;77.40;;;7.83;;
8514;SDS011;4295;51.024;7.000;2022-09-09T04:25:48;78.13;;;6.77;;
8514;SDS011;4295;51.024;7.000;2022-09-09T04:28:14;84.90;;;7.90;;
8514;SDS011;4295;51.024;7.000;2022-09-09T04:30:40;76.80;;;6.90;;
8514;SDS011;4295;51.024;7.000;2022-09-09T04:33:05;78.40;;;7.10;;
8514;SDS011;4295;51.024;7.000;2022-09-09T04:35:31;78.80;;;7.03;;
8514;SDS011;4295;51.024;7.000;2022-09-09T04:37:56;74.87;;;7.07;;
8514;SDS011;4295;51.024;7.000;2022-09-09T04:40:22;76.67;;;6.77;;
8514;SDS011;4295;51.024;7.000;2022-09-09T04:42:47;75.63;;;6.30;;
8514;SDS011;4295;51.024;7.000;2022-09-09T04:45:15;82.33;;;6.20;;
8514;SDS011;4295;51.024;7.000;2022-09-09T04:47:40;75.67;;;6.00;;
8514;SDS011;4295;51.024;7.000;2022-09-09T04:50:06;77.80;;;7.50;;
8514;SDS011;4295;51.024;7.000;2022-09-09T04:52:33;79.40;;;7.00;;
8514;SDS011;4295;51.024;7.000;2022-09-09T04:54:58;75.77;;;6.53;;
8514;SDS011;4295;51.024;7.000;2022-09-09T04:57:23;77.70;;;6.87;;
8514;SDS011;4295;51.024;7.000;2022-09-09T04:59:49;75.57;;;6.53;;
8514;SDS011;4295;51.024;7.000;2022-09-09T05:02:15;83.13;;;6.83;;
8514;SDS011;4295;51.024;7.000;2022-09-09T05:04:40;75.37;;;6.70;;
8514;SDS011;4295;51.024;7.000;2022-09-09T05:07:05;79.40;;;6.73;;
8514;SDS011;4295;51.024;7.000;2022-09-09T05:09:31;76.97;;;6.63;;
8514;SDS011;4295;51.024;7.000;2022-09-09T05:11:56;76.77;;;6.30;;
8514;SDS011;4295;51.024;7.000;2022-09-09T05:14:23;75.83;;;7.27;;
8514;SDS011;4295;51.024;7.000;2022-09-09T05:16:48;73.77;;;6.37;;
8514;SDS011;4295;51.024;7.000;2022-09-09T05:19:14;78.20;;;7.17;;
8514;SDS011;4295;51.024;7.000;2022-09-09T05:21:40;76.97;;;6.93;;
8514;SDS011;4295;51.024;7.000;2022-09-09T05:24:06;79.50;;;7.13;;
8514;SDS011;4295;51.024;7.000;2022-09-09T05:26:32;76.87;;;6.13;;
8514;SDS011;4295;51.024;7.000;2022-09-09T05:28:57;77.80;;;7.40;;
8514;SDS011;4295;51.024;7.000;2022-09-09T05:31:23;74.27;;;6.80;;
8514;SDS011;4295;51.024;7.000;2022-09-09T05:33:52;77.83;;;7.07;;
8514;SDS011;4295;51.024;7.000;2022-09-09T05:36:18;83.93;;;6.10;;
8514;SDS011;4295;51.024;7.000;2022-09-09T05:38:44;80.67;;;6.80;;
8514;SDS011;4295;51.024;7.000;2022-09-09T05:41:10;76.17;;;7.27;;
8514;SDS011;4295;51.024;7.000;2022-09-09T05:43:36;76.37;;;6.73;;
8514;SDS011;4295;51.024;7.000;2022-09-09T05:46:06;78.53;;;7.00;;
8514;SDS011;4295;51.024;7.000;2022-09-09T05:48:32;77.70;;;7.00;;
8514;SDS011;4295;51.024;7.000;2022-09-09T05:50:58;77.80;;;7.40;;
8514;SDS011;4295;51.024;7.000;2022-09-09T05:53:24;78.67;;;7.70;;
8514;SDS011;4295;51.024;7.000;2022-09-09T05:55:50;78.60;;;7.83;;
8514;SDS011;4295;51.024;7.000;2022-09-09T05:58:15;75.60;;;6.63;;
8514;SDS011;4295;51.024;7.000;2022-09-09T06:00:41;77.83;;;7.40;;
8514;SDS011;4295;51.024;7.000;2022-09-09T06:03:06;78.67;;;8.30;;
8514;SDS011;4295;51.024;7.000;2022-09-09T06:05:34;77.50;;;7.00;;
8514;SDS011;4295;51.024;7.000;2022-09-09T06:08:00;79.83;;;7.27;;
8514;SDS011;4295;51.024;7.000;2022-09-09T06:10:25;78.17;;;7.20;;
8514;SDS011;4295;51.024;7.000;2022-09-09T06:12:52;79.20;;;7.20;;
8514;SDS011;4295;51.024;7.000;2022-09-09T06:15:17;78.20;;;7.77;;
8514;SDS011;4295;51.024;7.000;2022-09-09T06:17:42;78.50;;;7.30;;
8514;SDS011;4295;51.024;7.000;2022-09-09T06:20:08;79.27;;;7.60;;
8514;SDS011;4295;51.024;7.000;2022-09-09T06:22:34;77.70;;;7.00;;
8514;SDS011;4295;51.024;7.000;2022-09-09T06:24:59;88.03;;;8.30;;
8514;SDS011;4295;51.024;7.000;2022-09-09T06:27:26;79.97;;;7.20;;
8514;SDS011;4295;51.024;7.000;2022-09-09T06:29:52;79.53;;;6.50;;
8514;SDS011;4295;51.024;7.000;2022-09-09T06:32:17;82.63;;;8.43;;
8514;SDS011;4295;51.024;7.000;2022-09-09T06:34:42;76.77;;;6.30;;
8514;SDS011;4295;51.024;7.000;2022-09-09T06:37:07;80.03;;;6.80;;
8514;SDS011;4295;51.024;7.000;2022-09-09T06:39:33;78.30;;;6.67;;
8514;SDS011;4295;51.024;7.000;2022-09-09T06:41:58;81.87;;;6.00;;
8514;SDS011;4295;51.024;7.000;2022-09-09T06:44:24;77.83;;;5.53;;
8514;SDS011;4295;51.024;7.000;2022-09-09T06:46:51;83.90;;;6.47;;
8514;SDS011;4295;51.024;7.000;2022-09-09T06:49:17;78.40;;;5.87;;
8514;SDS011;4295;51.024;7.000;2022-09-09T06:51:42;78.07;;;6.40;;
8514;SDS011;4295;51.024;7.000;2022-09-09T06:54:07;76.60;;;5.87;;
8514;SDS011;4295;51.024;7.000;2022-09-09T06:56:34;79.00;;;6.60;;
8514;SDS011;4295;51.024;7.000;2022-09-09T06:59:01;76.87;;;6.53;;
8514;SDS011;4295;51.024;7.000;2022-09-09T07:01:28;80.03;;;6.87;;
8514;SDS011;4295;51.024;7.000;2022-09-09T07:03:54;76.37;;;6.37;;
8514;SDS011;4295;51.024;7.000;2022-09-09T07:06:20;77.53;;;6.13;;
8514;SDS011;4295;51.024;7.000;2022-09-09T07:08:49;79.73;;;6.50;;
8514;SDS011;4295;51.024;7.000;2022-09-09T07:11:15;79.77;;;6.50;;
8514;SDS011;4295;51.024;7.000;2022-09-09T07:13:40;78.67;;;6.40;;
8514;SDS011;4295;51.024;7.000;2022-09-09T07:16:07;77.00;;;6.57;;
8514;SDS011;4295;51.024;7.000;2022-09-09T07:18:33;80.13;;;6.80;;
8514;SDS011;4295;51.024;7.000;2022-09-09T07:20:59;78.37;;;6.10;;
8514;SDS011;4295;51.024;7.000;2022-09-09T07:23:25;73.27;;;6.23;;
8514;SDS011;4295;51.024;7.000;2022-09-09T07:25:51;74.57;;;6.00;;
8514;SDS011;4295;51.024;7.000;2022-09-09T07:28:18;77.53;;;6.90;;
8514;SDS011;4295;51.024;7.000;2022-09-09T07:30:43;75.63;;;6.70;;
8514;SDS011;4295;51.024;7.000;2022-09-09T07:33:08;77.47;;;6.43;;
8514;SDS011;4295;51.024;7.000;2022-09-09T07:35:35;79.70;;;6.57;;
8514;SDS011;4295;51.024;7.000;2022-09-09T07:38:02;72.50;;;6.20;;
8514;SDS011;4295;51.024;7.000;2022-09-09T07:40:28;75.90;;;6.03;;
8514;SDS011;4295;51.024;7.000;2022-09-09T07:42:54;74.67;;;6.17;;
8514;SDS011;4295;51.024;7.000;2022-09-09T07:45:19;74.70;;;6.87;;
8514;SDS011;4295;51.024;7.000;2022-09-09T07:47:44;74.73;;;6.27;;
8514;SDS011;4295;51.024;7.000;2022-09-09T07:50:09;71.63;;;5.30;;
8514;SDS011;4295;51.024;7.000;2022-09-09T07:52:35;73.03;;;5.10;;
8514;SDS011;4295;51.024;7.000;2022-09-09T07:55:00;76.70;;;5.80;;
8514;SDS011;4295;51.024;7.000;2022-09-09T07:57:27;74.20;;;5.50;;
8514;SDS011;4295;51.024;7.000;2022-09-09T07:59:55;76.10;;;6.37;;
8514;SDS011;4295;51.024;7.000;2022-09-09T08:02:21;75.87;;;5.80;;
8514;SDS011;4295;51.024;7.000;2022-09-09T08:04:46;76.53;;;5.90;;
8514;SDS011;4295;51.024;7.000;2022-09-09T08:07:12;74.63;;;5.90;;
8514;SDS011;4295;51.024;7.000;2022-09-09T08:09:38;77.07;;;5.80;;
8514;SDS011;4295;51.024;7.000;2022-09-09T08:12:03;76.27;;;6.00;;
8514;SDS011;4295;51.024;7.000;2022-09-09T08:14:28;75.07;;;6.10;;
8514;SDS011;4295;51.024;7.000;2022-09-09T08:16:54;74.30;;;6.70;;
8514;SDS011;4295;51.024;7.000;2022-09-09T08:19:20;82.67;;;6.70;;
8514;SDS011;4295;51.024;7.000;2022-09-09T08:21:45;73.97;;;6.30;;
8514;SDS011;4295;51.024;7.000;2022-09-09T08:24:10;76.50;;;5.87;;
8514;SDS011;4295;51.024;7.000;2022-09-09T08:26:37;81.27;;;5.77;;
8514;SDS011;4295;51.024;7.000;2022-09-09T08:29:03;74.60;;;5.57;;
8514;SDS011;4295;51.024;7.000;2022-09-09T08:31:30;72.17;;;5.10;;
8514;SDS011;4295;51.024;7.000;2022-09-09T08:33:56;74.10;;;5.60;;
8514;SDS011;4295;51.024;7.000;2022-09-09T08:36:25;76.70;;;5.37;;
8514;SDS011;4295;51.024;7.000;2022-09-09T08:38:51;78.10;;;6.27;;
8514;SDS011;4295;51.024;7.000;2022-09-09T08:46:43;77.30;;;6.87;;
8514;SDS011;4295;51.024;7.000;2022-09-09T08:51:56;76.60;;;5.50;;
8514;SDS011;4295;51.024;7.000;2022-09-09T08:54:22;74.87;;;5.77;;
8514;SDS011;4295;51.024;7.000;2022-09-09T08:56:48;78.33;;;5.47;;
8514;SDS011;4295;51.024;7.000;2022-09-09T08:59:14;81.13;;;5.33;;
8514;SDS011;4295;51.024;7.000;2022-09-09T09:01:53;73.90;;;5.47;;
8514;SDS011;4295;51.024;7.000;2022-09-09T09:11:53;77.43;;;5.23;;
8514;SDS011;4295;51.024;7.000;2022-09-09T09:14:23;74.37;;;4.70;;
8514;SDS011;4295;51.024;7.000;2022-09-09T09:19:16;72.33;;;5.10;;
8514;SDS011;4295;51.024;7.000;2022-09-09T09:21:44;70.60;;;5.57;;
8514;SDS011;4295;51.024;7.000;2022-09-09T09:24:34;73.17;;;4.80;;
8514;SDS011;4295;51.024;7.000;2022-09-09T09:26:57;74.17;;;4.90;;
8514;SDS011;4295;51.024;7.000;2022-09-09T09:29:23;74.17;;;4.70;;
8514;SDS011;4295;51.024;7.000;2022-09-09T09:31:52;72.10;;;5.17;;
8514;SDS011;4295;51.024;7.000;2022-09-09T09:34:22;72.97;;;4.73;;
8514;SDS011;4295;51.024;7.000;2022-09-09T09:36:55;73.50;;;5.53;;
8514;SDS011;4295;51.024;7.000;2022-09-09T09:39:25;74.57;;;5.07;;
8514;SDS011;4295;51.024;7.000;2022-09-09T09:41:51;73.27;;;4.50;;
8514;SDS011;4295;51.024;7.000;2022-09-09T09:46:44;73.57;;;5.23;;
8514;SDS011;4295;51.024;7.000;2022-09-09T09:49:10;72.30;;;5.30;;
8514;SDS011;4295;51.024;7.000;2022-09-09T09:51:35;72.87;;;5.17;;
8514;SDS011;4295;51.024;7.000;2022-09-09T09:56:39;71.47;;;5.63;;
8514;SDS011;4295;51.024;7.000;2022-09-09T09:59:05;72.20;;;5.03;;
8514;SDS011;4295;51.024;7.000;2022-09-09T10:01:38;73.63;;;4.60;;
8514;SDS011;4295;51.024;7.000;2022-09-09T10:04:20;72.80;;;5.40;;
8514;SDS011;4295;51.024;7.000;2022-09-09T10:06:48;72.40;;;5.20;;
8514;SDS011;4295;51.024;7.000;2022-09-09T10:14:20;73.80;;;4.83;;
8514;SDS011;4295;51.024;7.000;2022-09-09T10:19:35;71.27;;;5.30;;
8514;SDS011;4295;51.024;7.000;2022-09-09T10:24:54;70.93;;;5.30;;
8514;SDS011;4295;51.024;7.000;2022-09-09T10:27:33;72.47;;;5.00;;
8514;SDS011;4295;51.024;7.000;2022-09-09T10:30:21;72.43;;;5.83;;
8514;SDS011;4295;51.024;7.000;2022-09-09T10:35:22;72.10;;;5.83;;
8514;SDS011;4295;51.024;7.000;2022-09-09T10:37:52;71.47;;;4.67;;
8514;SDS011;4295;51.024;7.000;2022-09-09T10:40:30;73.90;;;4.90;;
8514;SDS011;4295;51.024;7.000;2022-09-09T10:43:00;70.87;;;5.00;;
8514;SDS011;4295;51.024;7.000;2022-09-09T10:45:32;80.17;;;5.77;;
8514;SDS011;4295;51.024;7.000;2022-09-09T10:55:52;74.80;;;5.30;;
8514;SDS011;4295;51.024;7.000;2022-09-09T10:58:25;71.80;;;4.90;;
8514;SDS011;4295;51.024;7.000;2022-09-09T11:00:59;71.27;;;4.50;;
8514;SDS011;4295;51.024;7.000;2022-09-09T11:03:28;72.70;;;5.30;;
8514;SDS011;4295;51.024;7.000;2022-09-09T11:06:04;75.87;;;4.27;;
8514;SDS011;4295;51.024;7.000;2022-09-09T11:08:31;78.07;;;5.00;;
8514;SDS011;4295;51.024;7.000;2022-09-09T11:10:59;70.77;;;4.93;;
8514;SDS011;4295;51.024;7.000;2022-09-09T11:15:54;73.67;;;4.90;;
8514;SDS011;4295;51.024;7.000;2022-09-09T11:18:23;80.40;;;4.57;;
8514;SDS011;4295;51.024;7.000;2022-09-09T11:20:49;69.40;;;4.03;;
8514;SDS011;4295;51.024;7.000;2022-09-09T11:23:20;69.90;;;3.90;;
8514;SDS011;4295;51.024;7.000;2022-09-09T11:25:50;76.70;;;4.40;;
8514;SDS011;4295;51.024;7.000;2022-09-09T11:36:12;72.30;;;4.40;;
8514;SDS011;4295;51.024;7.000;2022-09-09T11:41:07;70.10;;;4.33;;
8514;SDS011;4295;51.024;7.000;2022-09-09T11:43:46;70.80;;;4.13;;
8514;SDS011;4295;51.024;7.000;2022-09-09T11:46:13;73.77;;;4.40;;
8514;SDS011;4295;51.024;7.000;2022-09-09T11:48:43;75.13;;;4.87;;
8514;SDS011;4295;51.024;7.000;2022-09-09T11:51:29;75.90;;;4.70;;
8514;SDS011;4295;51.024;7.000;2022-09-09T11:56:25;71.00;;;5.60;;
8514;SDS011;4295;51.024;7.000;2022-09-09T11:59:02;70.90;;;3.97;;
8514;SDS011;4295;51.024;7.000;2022-09-09T12:01:34;72.80;;;4.80;;
8514;SDS011;4295;51.024;7.000;2022-09-09T12:09:46;70.80;;;4.50;;
8514;SDS011;4295;51.024;7.000;2022-09-09T12:14:43;72.10;;;4.20;;
8514;SDS011;4295;51.024;7.000;2022-09-09T12:17:09;72.40;;;4.13;;
8514;SDS011;4295;51.024;7.000;2022-09-09T12:19:35;71.23;;;4.33;;
8514;SDS011;4295;51.024;7.000;2022-09-09T12:22:02;70.77;;;4.10;;
8514;SDS011;4295;51.024;7.000;2022-09-09T12:24:35;73.53;;;4.00;;
8514;SDS011;4295;51.024;7.000;2022-09-09T12:27:11;71.67;;;5.03;;
8514;SDS011;4295;51.024;7.000;2022-09-09T12:32:24;72.57;;;4.60;;
8514;SDS011;4295;51.024;7.000;2022-09-09T12:34:53;70.40;;;3.67;;
8514;SDS011;4295;51.024;7.000;2022-09-09T12:37:30;74.53;;;4.50;;
8514;SDS011;4295;51.024;7.000;2022-09-09T12:39:58;73.97;;;4.03;;
8514;SDS011;4295;51.024;7.000;2022-09-09T12:42:24;70.30;;;4.00;;
8514;SDS011;4295;51.024;7.000;2022-09-09T12:44:53;71.40;;;3.97;;
8514;SDS011;4295;51.024;7.000;2022-09-09T12:47:20;75.67;;;4.10;;
8514;SDS011;4295;51.024;7.000;2022-09-09T12:49:46;72.00;;;4.10;;
8514;SDS011;4295;51.024;7.000;2022-09-09T12:52:20;74.57;;;5.33;;
8514;SDS011;4295;51.024;7.000;2022-09-09T12:54:47;72.47;;;4.43;;
8514;SDS011;4295;51.024;7.000;2022-09-09T12:57:13;72.10;;;4.60;;
8514;SDS011;4295;51.024;7.000;2022-09-09T12:59:40;71.07;;;4.60;;
8514;SDS011;4295;51.024;7.000;2022-09-09T13:02:11;75.40;;;4.90;;
8514;SDS011;4295;51.024;7.000;2022-09-09T13:04:41;74.77;;;6.83;;
8514;SDS011;4295;51.024;7.000;2022-09-09T13:07:07;74.87;;;6.00;;
8514;SDS011;4295;51.024;7.000;2022-09-09T13:09:34;74.60;;;6.27;;
8514;SDS011;4295;51.024;7.000;2022-09-09T13:12:00;77.40;;;5.63;;
8514;SDS011;4295;51.024;7.000;2022-09-09T13:14:29;73.30;;;5.20;;
8514;SDS011;4295;51.024;7.000;2022-09-09T13:16:56;73.90;;;5.10;;
8514;SDS011;4295;51.024;7.000;2022-09-09T13:19:21;77.20;;;6.47;;
8514;SDS011;4295;51.024;7.000;2022-09-09T13:21:46;75.10;;;5.80;;
8514;SDS011;4295;51.024;7.000;2022-09-09T13:24:31;90.93;;;11.37;;
8514;SDS011;4295;51.024;7.000;2022-09-09T13:26:58;85.10;;;10.03;;
8514;SDS011;4295;51.024;7.000;2022-09-09T13:29:23;87.30;;;11.00;;
8514;SDS011;4295;51.024;7.000;2022-09-09T13:31:48;78.37;;;8.00;;
8514;SDS011;4295;51.024;7.000;2022-09-09T13:34:27;77.80;;;6.93;;
8514;SDS011;4295;51.024;7.000;2022-09-09T13:36:55;74.70;;;7.30;;
8514;SDS011;4295;51.024;7.000;2022-09-09T13:39:23;76.47;;;6.80;;
8514;SDS011;4295;51.024;7.000;2022-09-09T13:41:48;80.30;;;6.67;;
8514;SDS011;4295;51.024;7.000;2022-09-09T13:44:14;73.30;;;6.57;;
8514;SDS011;4295;51.024;7.000;2022-09-09T13:46:42;74.27;;;6.20;;
8514;SDS011;4295;51.024;7.000;2022-09-09T13:51:46;75.07;;;8.23;;
8514;SDS011;4295;51.024;7.000;2022-09-09T13:54:15;75.47;;;7.70;;
8514;SDS011;4295;51.024;7.000;2022-09-09T13:56:41;75.57;;;7.10;;
8514;SDS011;4295;51.024;7.000;2022-09-09T13:59:09;74.33;;;7.23;;
8514;SDS011;4295;51.024;7.000;2022-09-09T14:01:35;72.97;;;6.63;;
8514;SDS011;4295;51.024;7.000;2022-09-09T14:04:00;74.17;;;5.70;;
8514;SDS011;4295;51.024;7.000;2022-09-09T14:06:26;71.93;;;5.57;;
8514;SDS011;4295;51.024;7.000;2022-09-09T14:08:52;70.70;;;5.30;;
8514;SDS011;4295;51.024;7.000;2022-09-09T14:11:19;70.40;;;5.47;;
8514;SDS011;4295;51.024;7.000;2022-09-09T14:13:46;71.00;;;5.30;;
8514;SDS011;4295;51.024;7.000;2022-09-09T14:16:11;70.77;;;4.73;;
8514;SDS011;4295;51.024;7.000;2022-09-09T14:18:36;71.97;;;4.60;;
8514;SDS011;4295;51.024;7.000;2022-09-09T14:21:03;73.57;;;5.83;;
8514;SDS011;4295;51.024;7.000;2022-09-09T14:23:28;73.47;;;5.10;;
8514;SDS011;4295;51.024;7.000;2022-09-09T14:25:54;71.33;;;5.47;;
8514;SDS011;4295;51.024;7.000;2022-09-09T14:28:19;72.57;;;6.20;;
8514;SDS011;4295;51.024;7.000;2022-09-09T14:30:45;75.20;;;6.03;;
8514;SDS011;4295;51.024;7.000;2022-09-09T14:33:11;81.97;;;7.50;;
8514;SDS011;4295;51.024;7.000;2022-09-09T14:35:37;77.57;;;5.33;;
8514;SDS011;4295;51.024;7.000;2022-09-09T14:38:03;74.20;;;5.50;;
8514;SDS011;4295;51.024;7.000;2022-09-09T14:40:28;73.67;;;5.80;;
8514;SDS011;4295;51.024;7.000;2022-09-09T14:42:54;74.40;;;6.00;;
8514;SDS011;4295;51.024;7.000;2022-09-09T14:45:20;78.63;;;7.57;;
8514;SDS011;4295;51.024;7.000;2022-09-09T14:47:46;75.70;;;7.00;;
8514;SDS011;4295;51.024;7.000;2022-09-09T14:50:11;75.57;;;6.20;;
8514;SDS011;4295;51.024;7.000;2022-09-09T14:52:37;75.30;;;6.70;;
8514;SDS011;4295;51.024;7.000;2022-09-09T14:55:02;75.40;;;5.70;;
8514;SDS011;4295;51.024;7.000;2022-09-09T14:57:28;73.80;;;5.70;;
8514;SDS011;4295;51.024;7.000;2022-09-09T14:59:53;76.27;;;6.30;;
8514;SDS011;4295;51.024;7.000;2022-09-09T15:02:18;76.90;;;5.93;;
8514;SDS011;4295;51.024;7.000;2022-09-09T15:04:43;76.80;;;5.97;;
8514;SDS011;4295;51.024;7.000;2022-09-09T15:07:09;77.53;;;6.17;;
8514;SDS011;4295;51.024;7.000;2022-09-09T15:09:35;74.30;;;6.90;;
8514;SDS011;4295;51.024;7.000;2022-09-09T15:12:02;74.67;;;6.00;;
8514;SDS011;4295;51.024;7.000;2022-09-09T15:14:27;78.30;;;7.00;;
8514;SDS011;4295;51.024;7.000;2022-09-09T15:16:53;76.00;;;5.90;;
8514;SDS011;4295;51.024;7.000;2022-09-09T15:19:18;75.53;;;6.23;;
8514;SDS011;4295;51.024;7.000;2022-09-09T15:21:43;73.60;;;5.50;;
8514;SDS011;4295;51.024;7.000;2022-09-09T15:24:08;74.73;;;6.17;;
8514;SDS011;4295;51.024;7.000;2022-09-09T15:26:34;76.20;;;6.10;;
8514;SDS011;4295;51.024;7.000;2022-09-09T15:28:59;73.40;;;6.00;;
8514;SDS011;4295;51.024;7.000;2022-09-09T15:31:26;83.70;;;6.83;;
8514;SDS011;4295;51.024;7.000;2022-09-09T15:33:57;72.47;;;5.53;;
8514;SDS011;4295;51.024;7.000;2022-09-09T15:36:26;73.10;;;5.50;;
8514;SDS011;4295;51.024;7.000;2022-09-09T15:38:51;74.23;;;5.60;;
8514;SDS011;4295;51.024;7.000;2022-09-09T15:41:17;72.70;;;5.10;;
8514;SDS011;4295;51.024;7.000;2022-09-09T15:43:44;74.07;;;5.30;;
8514;SDS011;4295;51.024;7.000;2022-09-09T15:46:32;74.47;;;5.63;;
8514;SDS011;4295;51.024;7.000;2022-09-09T15:49:10;73.17;;;6.20;;
8514;SDS011;4295;51.024;7.000;2022-09-09T15:51:36;72.60;;;4.90;;
8514;SDS011;4295;51.024;7.000;2022-09-09T15:54:02;73.90;;;5.07;;
8514;SDS011;4295;51.024;7.000;2022-09-09T15:56:28;73.07;;;6.20;;
8514;SDS011;4295;51.024;7.000;2022-09-09T15:58:55;74.97;;;5.13;;
8514;SDS011;4295;51.024;7.000;2022-09-09T16:01:20;75.07;;;5.53;;
8514;SDS011;4295;51.024;7.000;2022-09-09T16:03:46;72.73;;;5.10;;
8514;SDS011;4295;51.024;7.000;2022-09-09T16:06:12;73.20;;;4.67;;
8514;SDS011;4295;51.024;7.000;2022-09-09T16:08:39;73.90;;;5.40;;
8514;SDS011;4295;51.024;7.000;2022-09-09T16:11:05;75.87;;;5.60;;
8514;SDS011;4295;51.024;7.000;2022-09-09T16:13:32;73.60;;;5.30;;
8514;SDS011;4295;51.024;7.000;2022-09-09T16:15:57;72.43;;;5.17;;
8514;SDS011;4295;51.024;7.000;2022-09-09T16:18:23;74.23;;;4.63;;
8514;SDS011;4295;51.024;7.000;2022-09-09T16:20:54;74.57;;;5.27;;
8514;SDS011;4295;51.024;7.000;2022-09-09T16:23:19;72.30;;;4.30;;
8514;SDS011;4295;51.024;7.000;2022-09-09T16:25:52;74.10;;;5.50;;
8514;SDS011;4295;51.024;7.000;2022-09-09T16:28:18;72.87;;;5.47;;
8514;SDS011;4295;51.024;7.000;2022-09-09T16:30:43;76.83;;;4.97;;
8514;SDS011;4295;51.024;7.000;2022-09-09T16:33:08;73.37;;;4.90;;
8514;SDS011;4295;51.024;7.000;2022-09-09T16:35:35;71.80;;;5.33;;
8514;SDS011;4295;51.024;7.000;2022-09-09T16:38:01;72.50;;;5.00;;
8514;SDS011;4295;51.024;7.000;2022-09-09T16:40:26;72.90;;;5.20;;
8514;SDS011;4295;51.024;7.000;2022-09-09T16:42:52;73.57;;;5.83;;
8514;SDS011;4295;51.024;7.000;2022-09-09T16:45:17;72.63;;;5.63;;
8514;SDS011;4295;51.024;7.000;2022-09-09T16:47:42;74.43;;;6.00;;
8514;SDS011;4295;51.024;7.000;2022-09-09T16:50:08;74.83;;;5.90;;
8514;SDS011;4295;51.024;7.000;2022-09-09T16:52:34;73.43;;;5.20;;
8514;SDS011;4295;51.024;7.000;2022-09-09T16:54:59;74.70;;;5.70;;
8514;SDS011;4295;51.024;7.000;2022-09-09T16:57:24;74.27;;;5.43;;
8514;SDS011;4295;51.024;7.000;2022-09-09T16:59:49;73.07;;;5.17;;
8514;SDS011;4295;51.024;7.000;2022-09-09T17:02:17;72.97;;;5.20;;
8514;SDS011;4295;51.024;7.000;2022-09-09T17:04:42;72.40;;;5.23;;